Terminal Aerodrome Forecast
Issued by NWS Mobile, AL

Home | Current Version | Previous Version | Text Only | Print | Product List | Glossary On
Versions: 1 2 3 4 5 6 7 8 9 10 11 12 13 14 15 16 17 18 19 20 21 22 23 24 25 26 27 28 29 30 31 32 33 34 35 36 37 38 39 40 41 42 43 44 45 46 47 48 49 50
901
FTUS44 KMOB 190528
TAFPNS
TAF
KPNS 190528Z 1906/2006 15004KT 1/4SM FG VV002
     FM191300 15005KT 1SM BR OVC007
     FM191500 17008KT P6SM BKN010
     FM191800 18010KT 5SM HZ BKN020
      TEMPO 1920/1924 VRB35KT 2SM TSRA BKN011CB
     FM200100 18011KT 4SM BR VCSH BKN020=

USA.gov is the U.S. government's official web portal to all federal, state and local government web resources and services.